Time;durP1;ratioP1;P1;durP2;ratioP2;P2;SDS_P1;SDS_P2;PMS_P1;PMS_P2;Temp;Humidity;BMP_temperature;BMP_pressure;BME280_temperature;BME280_humidity;BME280_pressure;Samples;Min_cycle;Max_cycle;Signal;HPM_P1;HPM_P2
2022/12/20 00:00:52;;;;;;;27.55;16.30;;;;;;;;;;4943106;29;20154;-81
2022/12/20 00:03:20;;;;;;;25.88;16.15;;;;;;;;;;4910924;29;20522;-81
2022/12/20 00:05:47;;;;;;;24.88;15.50;;;;;;;;;;4908704;29;20115;-81
2022/12/20 00:08:15;;;;;;;21.95;12.55;;;;;;;;;;4926891;29;20044;-81
2022/12/20 00:10:44;;;;;;;24.13;15.88;;;;;;;;;;4908722;29;20063;-81
2022/12/20 00:13:11;;;;;;;21.52;12.40;;;;;;;;;;4938135;29;20072;-81
2022/12/20 00:15:39;;;;;;;33.40;18.85;;;;;;;;;;4933350;29;20052;-81
2022/12/20 00:18:06;;;;;;;25.42;15.07;;;;;;;;;;4942451;29;20051;-81
2022/12/20 00:20:34;;;;;;;20.75;13.40;;;;;;;;;;4911790;29;20051;-83
2022/12/20 00:23:02;;;;;;;25.05;16.08;;;;;;;;;;4942848;29;20084;-81
2022/12/20 00:25:29;;;;;;;21.88;13.65;;;;;;;;;;4927568;29;20058;-81
2022/12/20 00:27:56;;;;;;;19.25;11.07;;;;;;;;;;4922598;29;20047;-81
2022/12/20 00:30:24;;;;;;;26.90;15.98;;;;;;;;;;4930907;29;20082;-81
2022/12/20 00:32:51;;;;;;;28.92;16.50;;;;;;;;;;4933226;29;20292;-81
2022/12/20 00:35:19;;;;;;;27.65;16.00;;;;;;;;;;4954238;29;20051;-82
2022/12/20 00:37:46;;;;;;;27.35;15.40;;;;;;;;;;4973641;28;20051;-81
2022/12/20 00:40:13;;;;;;;25.30;14.48;;;;;;;;;;4969978;29;20043;-80
2022/12/20 00:42:41;;;;;;;27.05;15.88;;;;;;;;;;4947746;29;20060;-81
2022/12/20 00:45:08;;;;;;;24.98;17.40;;;;;;;;;;4929787;29;20565;-81
2022/12/20 00:47:36;;;;;;;18.02;12.68;;;;;;;;;;4937750;29;20055;-81
2022/12/20 00:50:03;;;;;;;25.75;15.57;;;;;;;;;;4930863;29;20047;-80
2022/12/20 00:52:31;;;;;;;24.05;14.73;;;;;;;;;;4949712;29;20071;-81
2022/12/20 00:55:03;;;;;;;27.98;16.38;;;;;;;;;;4933304;29;20050;-82
2022/12/20 00:57:31;;;;;;;17.20;11.80;;;;;;;;;;4950529;28;20064;-81
2022/12/20 00:59:58;;;;;;;23.70;14.63;;;;;;;;;;4942363;29;20032;-82
2022/12/20 01:02:26;;;;;;;23.85;15.15;;;;;;;;;;4953971;28;20062;-82
2022/12/20 01:04:53;;;;;;;27.75;17.05;;;;;;;;;;4956947;29;20052;-82
2022/12/20 01:07:22;;;;;;;30.58;17.25;;;;;;;;;;4947670;29;20043;-80
2022/12/20 01:09:50;;;;;;;30.17;15.15;;;;;;;;;;4931475;29;20494;-82
2022/12/20 01:12:17;;;;;;;22.33;13.93;;;;;;;;;;4948407;29;20062;-81
2022/12/20 01:14:45;;;;;;;24.33;13.32;;;;;;;;;;4916238;29;20059;-81
2022/12/20 01:17:12;;;;;;;23.90;15.20;;;;;;;;;;4947513;29;20040;-81
2022/12/20 01:19:40;;;;;;;22.40;14.23;;;;;;;;;;4934496;29;20040;-81
2022/12/20 01:22:07;;;;;;;30.23;17.00;;;;;;;;;;4941740;29;20505;-80
2022/12/20 01:24:34;;;;;;;26.77;16.92;;;;;;;;;;4918573;29;20047;-80
2022/12/20 01:27:02;;;;;;;27.35;16.67;;;;;;;;;;4935748;29;20083;-80
2022/12/20 01:29:29;;;;;;;26.05;16.23;;;;;;;;;;4922069;29;20495;-81
2022/12/20 01:31:57;;;;;;;24.38;15.55;;;;;;;;;;4924299;29;20084;-81
2022/12/20 01:34:24;;;;;;;22.77;14.90;;;;;;;;;;4926593;29;20051;-81
2022/12/20 01:36:51;;;;;;;25.88;16.48;;;;;;;;;;4942386;29;20071;-82
2022/12/20 01:39:19;;;;;;;24.25;15.52;;;;;;;;;;4942657;29;20051;-81
2022/12/20 01:41:47;;;;;;;25.02;15.15;;;;;;;;;;4923861;29;20087;-80
2022/12/20 01:44:17;;;;;;;25.75;15.00;;;;;;;;;;4921394;29;20055;-80
2022/12/20 01:46:46;;;;;;;24.27;15.70;;;;;;;;;;4918122;29;20055;-80
2022/12/20 01:49:28;;;;;;;27.17;16.35;;;;;;;;;;4932942;29;20062;-80
2022/12/20 01:51:59;;;;;;;26.88;15.25;;;;;;;;;;4935250;29;20055;-81
2022/12/20 01:54:31;;;;;;;27.53;17.07;;;;;;;;;;4934766;23;20111;-83
2022/12/20 01:57:02;;;;;;;20.98;13.48;;;;;;;;;;4951383;28;20377;-84
2022/12/20 01:59:30;;;;;;;21.60;14.68;;;;;;;;;;4934996;29;20463;-83
2022/12/20 02:01:58;;;;;;;25.00;15.30;;;;;;;;;;4950925;29;20046;-83
2022/12/20 02:04:26;;;;;;;22.92;14.40;;;;;;;;;;4935299;29;20047;-83
2022/12/20 02:06:53;;;;;;;27.52;16.95;;;;;;;;;;4951868;28;20485;-82
2022/12/20 02:09:22;;;;;;;21.88;11.32;;;;;;;;;;4935304;29;20433;-83
2022/12/20 02:12:08;;;;;;;23.13;14.02;;;;;;;;;;4935107;29;20042;-83
2022/12/20 02:14:47;;;;;;;22.77;14.55;;;;;;;;;;4951011;28;20039;-82
2022/12/20 02:17:18;;;;;;;25.85;15.38;;;;;;;;;;4954387;29;20123;-83
2022/12/20 02:20:01;;;;;;;24.83;16.08;;;;;;;;;;4970555;29;20073;-83
2022/12/20 02:22:39;;;;;;;25.20;16.15;;;;;;;;;;4954487;29;20394;-82
2022/12/20 02:25:15;;;;;;;22.30;13.05;;;;;;;;;;4921051;29;20081;-83
2022/12/20 02:27:50;;;;;;;26.95;16.67;;;;;;;;;;4952845;28;20401;-83
2022/12/20 02:30:18;;;;;;;33.28;18.50;;;;;;;;;;4939529;28;20125;-83
2022/12/20 02:32:48;;;;;;;30.85;17.77;;;;;;;;;;4935640;29;20130;-83
2022/12/20 02:35:20;;;;;;;25.38;17.25;;;;;;;;;;4934140;29;20043;-83
2022/12/20 02:37:49;;;;;;;24.20;14.82;;;;;;;;;;4934329;29;20047;-83
2022/12/20 02:40:19;;;;;;;26.35;17.20;;;;;;;;;;4948834;29;20051;-82
2022/12/20 02:42:48;;;;;;;29.20;18.15;;;;;;;;;;4919358;29;20054;-83
2022/12/20 02:45:19;;;;;;;27.40;15.32;;;;;;;;;;4918502;29;20055;-83
2022/12/20 02:47:55;;;;;;;21.83;13.85;;;;;;;;;;4937775;28;20137;-83
2022/12/20 02:50:26;;;;;;;26.02;19.17;;;;;;;;;;4932798;28;20501;-82
2022/12/20 02:52:54;;;;;;;30.98;17.98;;;;;;;;;;4950214;28;20043;-84
2022/12/20 02:55:24;;;;;;;28.52;16.85;;;;;;;;;;4949521;29;20648;-83
2022/12/20 02:57:55;;;;;;;33.70;20.02;;;;;;;;;;4934388;29;20043;-84
2022/12/20 03:00:28;;;;;;;27.15;16.85;;;;;;;;;;4935286;28;20035;-83
2022/12/20 03:05:46;;;;;;;26.80;16.77;;;;;;;;;;4939227;29;20501;-83
2022/12/20 03:08:16;;;;;;;27.33;16.05;;;;;;;;;;4929221;29;20055;-83
2022/12/20 03:10:44;;;;;;;27.55;18.08;;;;;;;;;;4936759;29;20054;-84
2022/12/20 03:13:11;;;;;;;31.63;17.35;;;;;;;;;;4952621;29;20044;-83
2022/12/20 03:15:47;;;;;;;25.00;15.27;;;;;;;;;;4937645;28;20505;-83
2022/12/20 03:18:14;;;;;;;27.17;16.80;;;;;;;;;;4952659;29;20051;-83
2022/12/20 03:20:42;;;;;;;20.67;13.52;;;;;;;;;;4954492;28;20122;-83
2022/12/20 03:23:09;;;;;;;28.55;17.67;;;;;;;;;;4968318;29;20054;-83
2022/12/20 03:25:36;;;;;;;27.95;17.45;;;;;;;;;;4958240;29;20061;-83
2022/12/20 03:28:05;;;;;;;22.05;14.13;;;;;;;;;;4951123;29;20047;-83
2022/12/20 03:30:32;;;;;;;26.85;16.17;;;;;;;;;;4966904;29;20068;-84
2022/12/20 03:33:02;;;;;;;28.10;17.08;;;;;;;;;;4965586;28;20051;-83
2022/12/20 03:35:30;;;;;;;25.90;16.42;;;;;;;;;;4953592;29;20031;-84
2022/12/20 03:37:58;;;;;;;25.00;15.40;;;;;;;;;;4937194;28;20796;-84
2022/12/20 03:40:25;;;;;;;22.92;13.75;;;;;;;;;;4954745;29;20115;-84
2022/12/20 03:42:53;;;;;;;23.70;14.30;;;;;;;;;;4973571;28;20035;-84
2022/12/20 03:45:20;;;;;;;24.95;14.88;;;;;;;;;;4957383;28;20073;-83
2022/12/20 03:47:48;;;;;;;19.90;12.27;;;;;;;;;;4966654;28;20058;-83
2022/12/20 03:50:15;;;;;;;23.23;14.63;;;;;;;;;;4951771;29;20062;-83
2022/12/20 03:52:43;;;;;;;26.63;16.42;;;;;;;;;;4937883;29;20342;-83
2022/12/20 03:55:11;;;;;;;22.75;15.45;;;;;;;;;;4962226;28;20097;-84
2022/12/20 03:57:41;;;;;;;23.50;15.75;;;;;;;;;;4913663;29;20074;-83
2022/12/20 04:00:22;;;;;;;25.35;15.15;;;;;;;;;;4937634;29;20066;-83
2022/12/20 04:02:53;;;;;;;24.75;14.65;;;;;;;;;;4922419;29;20098;-83
2022/12/20 04:05:20;;;;;;;25.00;16.50;;;;;;;;;;4937600;29;20047;-83
2022/12/20 04:07:47;;;;;;;29.30;17.55;;;;;;;;;;4954106;28;20043;-83
2022/12/20 04:10:15;;;;;;;25.30;15.38;;;;;;;;;;4954862;28;20040;-83
2022/12/20 04:12:42;;;;;;;22.50;13.60;;;;;;;;;;4944852;29;20043;-83
2022/12/20 04:15:11;;;;;;;23.02;14.35;;;;;;;;;;4950516;28;20047;-83
2022/12/20 04:17:40;;;;;;;24.98;15.15;;;;;;;;;;4931023;29;20110;-83
2022/12/20 04:20:18;;;;;;;25.92;16.52;;;;;;;;;;4924007;29;20070;-83
2022/12/20 04:23:00;;;;;;;21.95;13.68;;;;;;;;;;4940017;29;20878;-83
2022/12/20 04:25:27;;;;;;;23.05;13.52;;;;;;;;;;4923420;29;20055;-82
2022/12/20 04:27:55;;;;;;;29.25;15.77;;;;;;;;;;4922000;28;20070;-83
2022/12/20 04:30:22;;;;;;;26.38;16.30;;;;;;;;;;4957800;28;20567;-83
2022/12/20 04:32:53;;;;;;;26.83;15.93;;;;;;;;;;4935754;28;20046;-83
2022/12/20 04:35:21;;;;;;;27.13;16.27;;;;;;;;;;4953048;28;20047;-83
2022/12/20 04:37:49;;;;;;;25.50;16.10;;;;;;;;;;4938457;29;20112;-84
2022/12/20 04:40:17;;;;;;;23.95;16.15;;;;;;;;;;4938429;29;20563;-83
2022/12/20 04:42:47;;;;;;;26.98;16.50;;;;;;;;;;4936941;28;20050;-83
2022/12/20 04:45:16;;;;;;;23.85;14.85;;;;;;;;;;4953871;29;20760;-82
2022/12/20 04:47:43;;;;;;;22.45;14.00;;;;;;;;;;4937795;29;20058;-83
2022/12/20 04:50:13;;;;;;;22.35;13.50;;;;;;;;;;4937278;29;20078;-82
2022/12/20 04:55:29;;;;;;;21.00;12.93;;;;;;;;;;4936984;29;20051;-84
2022/12/20 04:58:00;;;;;;;25.77;14.07;;;;;;;;;;4922673;29;20668;-83
2022/12/20 05:00:35;;;;;;;26.75;15.18;;;;;;;;;;4937501;29;20079;-83
2022/12/20 05:03:12;;;;;;;25.38;15.98;;;;;;;;;;4952814;28;20406;-83
2022/12/20 05:05:40;;;;;;;28.05;16.00;;;;;;;;;;4938188;29;20043;-83
2022/12/20 05:08:07;;;;;;;23.23;14.35;;;;;;;;;;4937104;29;20497;-83
2022/12/20 05:10:36;;;;;;;21.00;13.82;;;;;;;;;;4935129;29;20051;-84
2022/12/20 05:13:03;;;;;;;28.98;16.60;;;;;;;;;;4928050;29;20055;-83
2022/12/20 05:15:40;;;;;;;27.30;15.68;;;;;;;;;;4942223;29;20031;-83
2022/12/20 05:18:08;;;;;;;28.15;16.38;;;;;;;;;;4971396;28;20047;-83
2022/12/20 05:26:16;;;;;;;27.42;15.27;;;;;;;;;;4934190;29;20484;-83
2022/12/20 05:26:36;;;;;;;29.25;15.93;;;;;;;;;;4940513;29;20039;-83
2022/12/20 05:29:05;;;;;;;27.80;15.73;;;;;;;;;;4937059;29;20047;-82
2022/12/20 05:31:33;;;;;;;27.80;16.20;;;;;;;;;;4937073;29;20432;-83
2022/12/20 05:34:01;;;;;;;27.85;16.90;;;;;;;;;;4936284;28;20050;-83
2022/12/20 05:36:31;;;;;;;28.60;16.63;;;;;;;;;;4936070;29;20057;-84
2022/12/20 05:39:01;;;;;;;27.23;16.77;;;;;;;;;;4937562;29;20051;-84
2022/12/20 05:41:33;;;;;;;27.80;17.02;;;;;;;;;;4926043;29;20056;-83
2022/12/20 05:44:01;;;;;;;30.77;18.13;;;;;;;;;;4938658;29;20051;-83
2022/12/20 05:46:32;;;;;;;32.92;17.63;;;;;;;;;;4939252;29;20043;-84
2022/12/20 05:49:03;;;;;;;32.50;17.13;;;;;;;;;;4921755;29;20048;-83
2022/12/20 05:51:31;;;;;;;31.80;18.27;;;;;;;;;;4938410;29;20059;-83
2022/12/20 05:54:03;;;;;;;29.05;17.23;;;;;;;;;;4937395;28;20043;-83
2022/12/20 05:56:56;;;;;;;35.92;18.50;;;;;;;;;;4952081;29;20067;-83
2022/12/20 05:59:32;;;;;;;30.55;17.00;;;;;;;;;;4931534;29;20043;-83
2022/12/20 06:02:04;;;;;;;41.75;27.80;;;;;;;;;;4931288;29;20099;-83
2022/12/20 06:04:34;;;;;;;33.92;19.73;;;;;;;;;;4932627;29;20490;-83
2022/12/20 06:07:06;;;;;;;31.15;18.10;;;;;;;;;;4930903;29;20063;-85
2022/12/20 06:09:33;;;;;;;37.13;19.33;;;;;;;;;;4920853;29;20059;-84
2022/12/20 06:12:07;;;;;;;28.17;16.35;;;;;;;;;;4933887;29;20043;-85
2022/12/20 06:14:34;;;;;;;31.88;19.77;;;;;;;;;;4932541;29;20069;-84
2022/12/20 06:17:05;;;;;;;32.20;18.20;;;;;;;;;;4934292;29;20058;-85
2022/12/20 06:19:40;;;;;;;28.33;18.58;;;;;;;;;;4918276;29;20046;-83
2022/12/20 06:22:09;;;;;;;29.30;14.88;;;;;;;;;;4938412;29;20151;-84
2022/12/20 06:24:41;;;;;;;31.45;22.05;;;;;;;;;;4930366;29;20461;-85
2022/12/20 06:27:17;;;;;;;22.17;15.20;;;;;;;;;;4945150;29;20561;-85
2022/12/20 06:29:53;;;;;;;34.13;19.02;;;;;;;;;;4914413;29;20048;-85
2022/12/20 06:32:23;;;;;;;28.95;17.05;;;;;;;;;;4934786;29;20101;-82
2022/12/20 06:34:53;;;;;;;29.35;18.85;;;;;;;;;;4951704;28;20047;-84
2022/12/20 06:37:21;;;;;;;25.95;16.02;;;;;;;;;;4923669;29;20051;-83
2022/12/20 06:39:51;;;;;;;31.08;17.58;;;;;;;;;;4936666;28;20043;-83
2022/12/20 06:42:19;;;;;;;21.07;15.00;;;;;;;;;;4935387;28;20103;-85
2022/12/20 06:44:50;;;;;;;38.70;26.23;;;;;;;;;;4947084;28;20067;-85
2022/12/20 06:47:17;;;;;;;26.48;15.52;;;;;;;;;;4942198;29;20099;-83
2022/12/20 06:49:44;;;;;;;28.38;18.15;;;;;;;;;;4950415;28;20264;-84
2022/12/20 06:52:19;;;;;;;26.33;17.92;;;;;;;;;;4960309;29;20047;-85
2022/12/20 06:54:53;;;;;;;31.52;18.80;;;;;;;;;;4958047;28;20052;-84
2022/12/20 06:57:21;;;;;;;31.25;18.20;;;;;;;;;;4954198;29;20063;-85
2022/12/20 06:59:50;;;;;;;27.63;19.08;;;;;;;;;;4935509;28;20070;-84
2022/12/20 07:02:17;;;;;;;30.92;18.27;;;;;;;;;;4954184;28;20035;-84
2022/12/20 07:04:45;;;;;;;35.35;31.10;;;;;;;;;;4955129;28;20063;-84
2022/12/20 07:07:13;;;;;;;25.83;16.85;;;;;;;;;;4955287;28;20102;-84
2022/12/20 07:09:41;;;;;;;28.33;16.45;;;;;;;;;;4959300;28;20394;-84
2022/12/20 07:12:09;;;;;;;28.67;15.60;;;;;;;;;;4956522;28;20461;-85
2022/12/20 07:14:36;;;;;;;31.98;18.45;;;;;;;;;;4955026;28;20067;-84
2022/12/20 07:17:06;;;;;;;27.55;16.48;;;;;;;;;;4927615;28;20047;-84
2022/12/20 07:19:35;;;;;;;27.80;16.88;;;;;;;;;;4935781;29;20047;-83
2022/12/20 07:22:04;;;;;;;29.88;17.77;;;;;;;;;;4934181;28;20043;-84
2022/12/20 07:24:32;;;;;;;34.65;19.15;;;;;;;;;;4948539;28;20043;-83
2022/12/20 07:27:00;;;;;;;31.15;18.17;;;;;;;;;;4936130;28;20039;-83
2022/12/20 07:29:27;;;;;;;35.00;19.98;;;;;;;;;;4949134;28;20039;-83
2022/12/20 07:31:55;;;;;;;34.65;18.92;;;;;;;;;;4952060;28;20606;-81
2022/12/20 07:34:22;;;;;;;29.60;17.17;;;;;;;;;;4955152;28;20042;-86
2022/12/20 07:36:52;;;;;;;32.83;18.90;;;;;;;;;;4951483;28;20051;-84
2022/12/20 07:39:20;;;;;;;33.65;18.83;;;;;;;;;;4934782;29;20049;-84
2022/12/20 07:41:47;;;;;;;29.30;18.17;;;;;;;;;;4933477;29;20520;-84
2022/12/20 07:44:16;;;;;;;37.47;19.75;;;;;;;;;;4935409;28;20075;-85
2022/12/20 07:46:43;;;;;;;33.25;19.70;;;;;;;;;;4949478;28;20501;-83
2022/12/20 07:49:11;;;;;;;46.28;41.38;;;;;;;;;;4949053;28;20497;-83
2022/12/20 07:51:42;;;;;;;38.25;20.08;;;;;;;;;;4953054;28;20043;-85
2022/12/20 07:54:11;;;;;;;36.63;20.05;;;;;;;;;;4950817;28;20039;-84
2022/12/20 07:56:41;;;;;;;35.63;20.08;;;;;;;;;;5075656;23;20134;-80
2022/12/20 07:59:10;;;;;;;34.85;20.23;;;;;;;;;;4932247;29;20518;-82
2022/12/20 08:01:38;;;;;;;34.53;19.80;;;;;;;;;;4911406;29;20522;-80
2022/12/20 08:04:08;;;;;;;39.30;20.80;;;;;;;;;;4942677;29;20138;-81
2022/12/20 08:06:36;;;;;;;31.50;18.80;;;;;;;;;;4928114;29;20115;-80
2022/12/20 08:09:05;;;;;;;36.13;19.08;;;;;;;;;;4928237;29;20098;-83
2022/12/20 08:11:34;;;;;;;33.53;18.50;;;;;;;;;;4943552;29;20035;-80
2022/12/20 08:14:02;;;;;;;34.08;19.70;;;;;;;;;;4943664;29;20035;-80
2022/12/20 08:16:30;;;;;;;32.10;20.10;;;;;;;;;;4911498;29;20146;-80
2022/12/20 08:18:57;;;;;;;36.88;20.90;;;;;;;;;;4911545;29;20063;-81
2022/12/20 08:21:24;;;;;;;34.55;20.60;;;;;;;;;;4927613;29;20051;-81
2022/12/20 08:23:52;;;;;;;37.55;21.40;;;;;;;;;;4948432;29;20114;-81
2022/12/20 08:26:19;;;;;;;31.63;20.63;;;;;;;;;;4919962;29;20063;-80
2022/12/20 08:28:47;;;;;;;39.90;27.27;;;;;;;;;;4911042;29;20586;-81
2022/12/20 08:31:14;;;;;;;37.35;22.40;;;;;;;;;;4908131;29;20482;-80
2022/12/20 08:33:42;;;;;;;34.17;19.63;;;;;;;;;;4941198;29;20082;-80
2022/12/20 08:36:10;;;;;;;39.33;22.42;;;;;;;;;;4919743;29;20035;-80
2022/12/20 08:38:38;;;;;;;35.08;20.15;;;;;;;;;;4925819;29;20496;-81
2022/12/20 08:41:07;;;;;;;33.72;20.40;;;;;;;;;;4936221;29;20529;-81
2022/12/20 08:43:34;;;;;;;33.00;18.67;;;;;;;;;;4927887;29;20042;-80
2022/12/20 08:46:02;;;;;;;40.85;22.67;;;;;;;;;;4927429;29;20440;-80
2022/12/20 08:48:31;;;;;;;28.73;17.00;;;;;;;;;;4932738;29;20051;-80
2022/12/20 08:50:59;;;;;;;33.22;19.08;;;;;;;;;;4918004;29;20055;-80
2022/12/20 08:53:28;;;;;;;32.00;19.52;;;;;;;;;;4909800;29;20097;-80
2022/12/20 08:56:06;;;;;;;29.58;17.35;;;;;;;;;;4916759;29;20051;-80
2022/12/20 08:58:34;;;;;;;41.55;21.67;;;;;;;;;;4943815;29;20051;-80
2022/12/20 09:01:03;;;;;;;39.03;22.02;;;;;;;;;;4941239;29;20048;-80
2022/12/20 09:03:34;;;;;;;38.97;20.98;;;;;;;;;;4927767;29;20114;-80
2022/12/20 09:06:05;;;;;;;36.50;21.33;;;;;;;;;;4930608;29;20423;-81
2022/12/20 09:08:36;;;;;;;34.80;20.58;;;;;;;;;;4914658;29;20039;-80
2022/12/20 09:11:04;;;;;;;38.50;20.88;;;;;;;;;;4901402;29;20126;-80
2022/12/20 09:13:32;;;;;;;44.67;21.75;;;;;;;;;;4909209;29;20070;-80
2022/12/20 09:16:08;;;;;;;39.80;21.00;;;;;;;;;;4910513;29;20302;-80
2022/12/20 09:18:35;;;;;;;40.13;21.77;;;;;;;;;;4930085;29;20108;-81
2022/12/20 09:21:04;;;;;;;41.55;21.98;;;;;;;;;;4928662;29;20048;-80
2022/12/20 09:23:32;;;;;;;49.85;21.40;;;;;;;;;;4938467;29;20052;-81
2022/12/20 09:26:04;;;;;;;43.70;21.70;;;;;;;;;;4934147;29;20091;-82
2022/12/20 09:28:31;;;;;;;45.55;21.85;;;;;;;;;;4931357;29;20074;-80
2022/12/20 09:30:59;;;;;;;43.35;22.42;;;;;;;;;;4941228;29;20044;-81
2022/12/20 09:33:27;;;;;;;38.67;19.83;;;;;;;;;;4949730;29;20046;-81
2022/12/20 09:35:55;;;;;;;45.53;23.02;;;;;;;;;;4933813;29;20139;-82
2022/12/20 09:38:22;;;;;;;43.00;24.77;;;;;;;;;;4952911;29;20051;-81
2022/12/20 09:40:52;;;;;;;39.33;20.40;;;;;;;;;;4948054;29;20052;-80
2022/12/20 09:43:20;;;;;;;37.10;21.17;;;;;;;;;;4911111;29;20298;-80
2022/12/20 09:45:50;;;;;;;37.72;20.88;;;;;;;;;;4930914;29;20055;-81
2022/12/20 09:48:19;;;;;;;51.63;22.70;;;;;;;;;;4898790;29;20131;-80
2022/12/20 09:51:05;;;;;;;46.22;22.77;;;;;;;;;;4927439;29;20152;-80
2022/12/20 09:53:41;;;;;;;41.05;21.98;;;;;;;;;;4948930;29;20043;-80
2022/12/20 09:56:13;;;;;;;41.60;22.02;;;;;;;;;;4933377;29;20081;-81
2022/12/20 09:58:41;;;;;;;43.20;21.77;;;;;;;;;;4922630;29;20050;-79
2022/12/20 10:01:15;;;;;;;39.75;20.67;;;;;;;;;;4944209;29;20444;-81
2022/12/20 10:03:49;;;;;;;37.50;22.90;;;;;;;;;;4937397;29;20067;-81
2022/12/20 10:06:32;;;;;;;41.70;22.02;;;;;;;;;;4922656;29;20075;-82
2022/12/20 10:09:12;;;;;;;43.20;31.08;;;;;;;;;;4940675;28;20035;-80
2022/12/20 10:11:43;;;;;;;39.65;21.38;;;;;;;;;;4917216;29;20039;-81
2022/12/20 10:14:25;;;;;;;37.63;19.40;;;;;;;;;;4931493;29;20054;-80
2022/12/20 10:17:00;;;;;;;39.72;21.70;;;;;;;;;;4922566;29;20047;-81
2022/12/20 10:19:33;;;;;;;42.88;21.38;;;;;;;;;;4940337;29;20054;-81
2022/12/20 10:22:06;;;;;;;37.17;20.73;;;;;;;;;;4928106;29;20134;-80
2022/12/20 10:24:35;;;;;;;38.92;20.63;;;;;;;;;;4941609;29;20397;-82
2022/12/20 10:27:13;;;;;;;35.13;20.45;;;;;;;;;;4929441;29;20044;-81
2022/12/20 10:29:41;;;;;;;35.03;19.65;;;;;;;;;;4929953;29;20094;-83
2022/12/20 10:32:12;;;;;;;41.42;22.60;;;;;;;;;;4927266;29;20192;-82
2022/12/20 10:35:00;;;;;;;38.22;21.05;;;;;;;;;;4920878;29;20071;-80
2022/12/20 10:37:28;;;;;;;36.92;20.70;;;;;;;;;;4939592;29;20054;-81
2022/12/20 10:39:56;;;;;;;42.35;21.33;;;;;;;;;;4927627;29;20071;-80
2022/12/20 10:42:37;;;;;;;42.78;21.80;;;;;;;;;;4946259;29;20039;-81
2022/12/20 10:45:14;;;;;;;47.10;31.95;;;;;;;;;;4917385;29;20047;-79
2022/12/20 10:47:44;;;;;;;44.30;21.90;;;;;;;;;;4914896;29;20434;-81
2022/12/20 10:50:16;;;;;;;42.15;21.17;;;;;;;;;;4946034;29;20102;-82
2022/12/20 10:52:43;;;;;;;;;;;;;;;;;;4939145;29;20051;-82
2022/12/20 10:55:43;;;;;;;40.90;21.17;;;;;;;;;;4951042;29;19930;-82
2022/12/20 10:58:21;;;;;;;39.50;21.55;;;;;;;;;;4892470;29;20047;-79
2022/12/20 11:00:48;;;;;;;40.38;21.27;;;;;;;;;;4931050;29;20599;-82
2022/12/20 11:03:18;;;;;;;43.28;20.88;;;;;;;;;;4939487;29;20063;-81
2022/12/20 11:06:03;;;;;;;35.85;18.63;;;;;;;;;;4956478;29;20534;-81
2022/12/20 11:08:32;;;;;;;41.13;21.20;;;;;;;;;;4938079;29;20051;-82
2022/12/20 11:11:12;;;;;;;44.88;20.85;;;;;;;;;;4922933;29;20487;-81
2022/12/20 11:13:40;;;;;;;41.38;20.92;;;;;;;;;;4916243;29;20130;-81
2022/12/20 11:16:22;;;;;;;39.72;19.85;;;;;;;;;;4943022;29;20050;-80
2022/12/20 11:18:50;;;;;;;;;;;;;;;;;;4959966;29;20051;-81
2022/12/20 11:21:20;;;;;;;37.55;19.52;;;;;;;;;;4956526;28;19937;-83
2022/12/20 11:24:09;;;;;;;33.58;19.90;;;;;;;;;;4944277;29;20063;-80
2022/12/20 11:26:53;;;;;;;36.40;19.90;;;;;;;;;;4928362;29;20055;-81
2022/12/20 11:29:24;;;;;;;43.90;21.42;;;;;;;;;;4936514;29;20094;-82
2022/12/20 11:31:54;;;;;;;39.13;21.23;;;;;;;;;;4929657;29;20065;-81
2022/12/20 11:34:40;;;;;;;36.83;20.27;;;;;;;;;;4921983;29;20131;-82
2022/12/20 11:37:22;;;;;;;39.47;22.17;;;;;;;;;;4927280;29;20063;-82
2022/12/20 11:40:04;;;;;;;42.92;22.85;;;;;;;;;;4928030;29;20051;-82
2022/12/20 11:42:32;;;;;;;46.33;24.08;;;;;;;;;;4928591;29;20111;-80
2022/12/20 11:44:59;;;;;;;40.88;27.65;;;;;;;;;;4942032;29;20047;-81
2022/12/20 11:47:42;;;;;;;40.38;22.13;;;;;;;;;;4926442;29;20059;-80
2022/12/20 11:50:18;;;;;;;39.42;21.20;;;;;;;;;;4942658;29;20066;-82
2022/12/20 11:52:53;;;;;;;40.90;19.02;;;;;;;;;;4940592;29;20043;-83
2022/12/20 11:55:28;;;;;;;44.90;21.33;;;;;;;;;;4946360;29;20043;-81
2022/12/20 11:57:56;;;;;;;43.28;20.90;;;;;;;;;;4946171;29;20087;-82
2022/12/20 12:00:47;;;;;;;41.88;22.23;;;;;;;;;;4947776;29;20566;-81
2022/12/20 12:03:25;;;;;;;44.50;25.52;;;;;;;;;;4947593;29;20074;-80
2022/12/20 12:05:55;;;;;;;34.83;17.95;;;;;;;;;;4947961;29;20504;-80
2022/12/20 12:08:45;;;;;;;51.88;30.88;;;;;;;;;;4932801;29;20064;-81
2022/12/20 12:11:45;;;;;;;36.80;19.80;;;;;;;;;;4956578;29;20055;-81
2022/12/20 12:14:46;;;;;;;42.92;23.15;;;;;;;;;;4936817;29;20091;-80
2022/12/20 12:17:17;;;;;;;45.80;23.40;;;;;;;;;;4929178;29;20499;-81
2022/12/20 12:19:48;;;;;;;45.13;23.30;;;;;;;;;;4962835;29;20051;-81
2022/12/20 12:22:18;;;;;;;37.72;19.77;;;;;;;;;;4945663;29;20053;-81
2022/12/20 12:24:48;;;;;;;48.50;24.52;;;;;;;;;;4964563;29;20059;-82
2022/12/20 12:27:22;;;;;;;50.83;28.38;;;;;;;;;;4945669;29;20105;-83
2022/12/20 12:29:50;;;;;;;44.70;22.25;;;;;;;;;;4942707;29;20050;-82
2022/12/20 12:32:22;;;;;;;41.35;21.40;;;;;;;;;;4936478;29;20051;-81
2022/12/20 12:34:49;;;;;;;;;;;;;;;;;;4937024;29;20050;-82
2022/12/20 12:37:36;;;;;;;42.22;21.45;;;;;;;;;;4926428;29;20013;-82
2022/12/20 12:40:12;;;;;;;46.22;22.52;;;;;;;;;;4941526;29;20054;-81
2022/12/20 12:42:58;;;;;;;44.75;22.83;;;;;;;;;;4959962;29;20050;-81
2022/12/20 12:45:27;;;;;;;43.00;22.10;;;;;;;;;;4959053;29;20090;-82
2022/12/20 12:48:02;;;;;;;51.30;23.67;;;;;;;;;;4927800;29;20503;-81
2022/12/20 12:50:31;;;;;;;43.78;22.23;;;;;;;;;;4960383;29;20126;-81
2022/12/20 12:53:13;;;;;;;45.70;24.00;;;;;;;;;;4912537;29;20044;-81
2022/12/20 12:55:45;;;;;;;48.25;24.33;;;;;;;;;;4893147;29;20216;-82
2022/12/20 12:58:19;;;;;;;44.40;23.42;;;;;;;;;;4908586;29;20078;-80
2022/12/20 13:00:53;;;;;;;43.42;22.13;;;;;;;;;;4909673;29;20090;-82
2022/12/20 13:03:40;;;;;;;42.38;21.70;;;;;;;;;;4924292;29;20043;-82
2022/12/20 13:06:24;;;;;;;55.90;25.08;;;;;;;;;;4926130;29;20101;-81
2022/12/20 13:08:57;;;;;;;43.15;22.77;;;;;;;;;;4948549;29;20043;-82
2022/12/20 13:11:39;;;;;;;44.78;21.25;;;;;;;;;;4928649;29;20052;-84
2022/12/20 13:14:26;;;;;;;52.05;23.92;;;;;;;;;;4933221;29;20875;-82
2022/12/20 13:16:54;;;;;;;38.35;16.50;;;;;;;;;;4926017;29;20503;-82
2022/12/20 13:19:39;;;;;;;43.83;21.92;;;;;;;;;;4924807;29;20073;-80
2022/12/20 13:22:15;;;;;;;42.90;22.73;;;;;;;;;;4940737;29;20051;-82
2022/12/20 13:24:47;;;;;;;49.00;23.55;;;;;;;;;;4967279;29;20051;-81
2022/12/20 13:27:22;;;;;;;46.08;22.67;;;;;;;;;;4956420;29;20115;-80
2022/12/20 13:29:56;;;;;;;47.20;24.70;;;;;;;;;;4922492;29;20106;-82
2022/12/20 13:32:42;;;;;;;48.08;22.95;;;;;;;;;;4926022;29;20495;-81
2022/12/20 13:35:28;;;;;;;49.70;23.70;;;;;;;;;;4901793;29;20059;-81
2022/12/20 13:38:25;;;;;;;34.60;16.48;;;;;;;;;;4921085;29;20103;-80
2022/12/20 13:41:00;;;;;;;42.53;22.38;;;;;;;;;;4901720;29;20452;-80
2022/12/20 13:43:30;;;;;;;52.45;37.97;;;;;;;;;;4933310;29;20043;-82
2022/12/20 13:46:01;;;;;;;41.35;19.25;;;;;;;;;;4949425;29;20048;-81
2022/12/20 13:48:31;;;;;;;47.75;22.27;;;;;;;;;;4926696;29;20074;-83
2022/12/20 13:50:58;;;;;;;44.08;23.77;;;;;;;;;;4940859;29;20520;-81
2022/12/20 13:53:27;;;;;;;46.53;22.52;;;;;;;;;;4920499;29;20054;-82
2022/12/20 13:55:54;;;;;;;42.25;21.38;;;;;;;;;;4934689;23;20484;-81
2022/12/20 13:58:26;;;;;;;37.88;19.40;;;;;;;;;;4939680;28;20500;-80
2022/12/20 14:00:54;;;;;;;46.53;24.50;;;;;;;;;;4958349;28;20051;-81
2022/12/20 14:03:23;;;;;;;46.17;21.70;;;;;;;;;;4911951;29;20055;-80
2022/12/20 14:05:55;;;;;;;43.53;22.40;;;;;;;;;;4934748;29;20568;-80
2022/12/20 14:08:24;;;;;;;49.28;25.08;;;;;;;;;;4949698;29;20055;-80
2022/12/20 14:10:52;;;;;;;44.13;21.70;;;;;;;;;;4917623;29;20039;-80
2022/12/20 14:13:26;;;;;;;51.80;26.02;;;;;;;;;;4945760;29;20037;-80
2022/12/20 14:15:55;;;;;;;48.00;22.65;;;;;;;;;;4952799;29;20047;-80
2022/12/20 14:18:23;;;;;;;47.50;22.33;;;;;;;;;;4919817;29;20047;-83
2022/12/20 14:20:53;;;;;;;48.70;22.55;;;;;;;;;;4905765;29;20048;-83
2022/12/20 14:23:23;;;;;;;42.50;20.45;;;;;;;;;;4911172;29;20692;-82
2022/12/20 14:25:52;;;;;;;48.63;23.42;;;;;;;;;;4914111;29;20051;-83
2022/12/20 14:28:22;;;;;;;43.95;21.17;;;;;;;;;;4902322;29;20134;-82
2022/12/20 14:30:54;;;;;;;43.38;21.45;;;;;;;;;;4929550;29;20157;-83
2022/12/20 14:33:24;;;;;;;41.97;21.23;;;;;;;;;;4907712;29;20050;-83
2022/12/20 14:35:52;;;;;;;44.58;22.73;;;;;;;;;;4934967;29;20063;-82
2022/12/20 14:38:24;;;;;;;44.83;22.13;;;;;;;;;;4899532;29;20058;-83
2022/12/20 14:40:52;;;;;;;45.15;22.85;;;;;;;;;;4911142;29;20050;-83
2022/12/20 14:43:34;;;;;;;38.55;21.73;;;;;;;;;;4917321;29;20051;-83
2022/12/20 14:46:13;;;;;;;45.45;22.88;;;;;;;;;;4917186;29;20491;-83
2022/12/20 14:48:41;;;;;;;43.30;21.80;;;;;;;;;;4938814;29;20087;-82
2022/12/20 14:51:08;;;;;;;45.90;22.27;;;;;;;;;;4950201;29;20047;-82